sensor_id;sensor_type;location;lat;lon;timestamp;temperature;humidity
17178;DHT22;8704;52.006;4.374;2023-03-04T00:02:18;6.00;1.00
17178;DHT22;8704;52.006;4.374;2023-03-04T00:04:48;6.00;1.00
17178;DHT22;8704;52.006;4.374;2023-03-04T00:07:16;6.00;1.00
17178;DHT22;8704;52.006;4.374;2023-03-04T00:09:45;6.00;1.00
17178;DHT22;8704;52.006;4.374;2023-03-04T00:12:13;6.20;1.00
17178;DHT22;8704;52.006;4.374;2023-03-04T00:14:41;6.00;1.00
17178;DHT22;8704;52.006;4.374;2023-03-04T00:17:09;6.00;1.00
17178;DHT22;8704;52.006;4.374;2023-03-04T00:19:37;6.00;1.00
17178;DHT22;8704;52.006;4.374;2023-03-04T00:22:06;6.00;1.00
17178;DHT22;8704;52.006;4.374;2023-03-04T00:24:34;6.00;1.00
17178;DHT22;8704;52.006;4.374;2023-03-04T00:27:02;6.00;1.00
17178;DHT22;8704;52.006;4.374;2023-03-04T00:29:30;5.90;1.00
17178;DHT22;8704;52.006;4.374;2023-03-04T00:31:58;6.50;1.00
17178;DHT22;8704;52.006;4.374;2023-03-04T00:34:26;5.90;1.00
17178;DHT22;8704;52.006;4.374;2023-03-04T00:36:58;6.70;1.00
17178;DHT22;8704;52.006;4.374;2023-03-04T00:39:29;6.00;1.00
17178;DHT22;8704;52.006;4.374;2023-03-04T00:41:57;5.90;1.00
17178;DHT22;8704;52.006;4.374;2023-03-04T00:44:25;5.90;1.00
17178;DHT22;8704;52.006;4.374;2023-03-04T00:46:52;6.00;1.00
17178;DHT22;8704;52.006;4.374;2023-03-04T00:49:21;6.00;1.00
17178;DHT22;8704;52.006;4.374;2023-03-04T00:51:49;6.00;1.00
17178;DHT22;8704;52.006;4.374;2023-03-04T00:54:17;6.00;1.00
17178;DHT22;8704;52.006;4.374;2023-03-04T00:56:46;6.00;1.00
17178;DHT22;8704;52.006;4.374;2023-03-04T00:59:14;6.00;1.00
17178;DHT22;8704;52.006;4.374;2023-03-04T01:01:42;6.00;1.00
17178;DHT22;8704;52.006;4.374;2023-03-04T01:04:10;6.00;1.00
17178;DHT22;8704;52.006;4.374;2023-03-04T01:06:38;5.90;1.00
17178;DHT22;8704;52.006;4.374;2023-03-04T01:09:06;5.90;1.00
17178;DHT22;8704;52.006;4.374;2023-03-04T01:11:34;6.00;1.00
17178;DHT22;8704;52.006;4.374;2023-03-04T01:14:04;5.90;1.00
17178;DHT22;8704;52.006;4.374;2023-03-04T01:16:32;5.90;1.00
17178;DHT22;8704;52.006;4.374;2023-03-04T01:19:00;5.90;1.00
17178;DHT22;8704;52.006;4.374;2023-03-04T01:21:28;5.90;1.00
17178;DHT22;8704;52.006;4.374;2023-03-04T01:23:56;6.50;1.00
17178;DHT22;8704;52.006;4.374;2023-03-04T01:26:24;5.90;1.00
17178;DHT22;8704;52.006;4.374;2023-03-04T01:28:52;5.90;1.00
17178;DHT22;8704;52.006;4.374;2023-03-04T01:31:21;5.90;1.00
17178;DHT22;8704;52.006;4.374;2023-03-04T01:33:50;6.30;1.00
17178;DHT22;8704;52.006;4.374;2023-03-04T01:36:18;5.90;1.00
17178;DHT22;8704;52.006;4.374;2023-03-04T01:38:46;5.90;1.00
17178;DHT22;8704;52.006;4.374;2023-03-04T01:41:16;5.90;1.00
17178;DHT22;8704;52.006;4.374;2023-03-04T01:43:45;5.90;1.00
17178;DHT22;8704;52.006;4.374;2023-03-04T01:46:13;5.90;1.00
17178;DHT22;8704;52.006;4.374;2023-03-04T01:48:44;5.90;1.00
17178;DHT22;8704;52.006;4.374;2023-03-04T01:51:14;5.90;1.00
17178;DHT22;8704;52.006;4.374;2023-03-04T01:53:43;6.30;1.00
17178;DHT22;8704;52.006;4.374;2023-03-04T01:56:18;5.90;1.00
17178;DHT22;8704;52.006;4.374;2023-03-04T01:59:05;5.90;1.00
17178;DHT22;8704;52.006;4.374;2023-03-04T02:01:34;5.90;1.00
17178;DHT22;8704;52.006;4.374;2023-03-04T02:04:03;5.90;1.00
17178;DHT22;8704;52.006;4.374;2023-03-04T02:06:32;5.90;1.00
17178;DHT22;8704;52.006;4.374;2023-03-04T02:09:00;5.90;1.00
17178;DHT22;8704;52.006;4.374;2023-03-04T02:11:28;5.90;1.00
17178;DHT22;8704;52.006;4.374;2023-03-04T02:13:57;5.90;1.00
17178;DHT22;8704;52.006;4.374;2023-03-04T02:16:25;5.90;1.00
17178;DHT22;8704;52.006;4.374;2023-03-04T02:18:53;5.90;1.00
17178;DHT22;8704;52.006;4.374;2023-03-04T02:21:24;5.90;1.00
17178;DHT22;8704;52.006;4.374;2023-03-04T02:23:59;5.90;1.00
17178;DHT22;8704;52.006;4.374;2023-03-04T02:26:32;5.90;1.00
17178;DHT22;8704;52.006;4.374;2023-03-04T02:29:01;5.80;1.00
17178;DHT22;8704;52.006;4.374;2023-03-04T02:31:32;5.90;1.00
17178;DHT22;8704;52.006;4.374;2023-03-04T02:34:01;5.90;1.00
17178;DHT22;8704;52.006;4.374;2023-03-04T02:36:30;5.90;1.00
17178;DHT22;8704;52.006;4.374;2023-03-04T02:39:06;5.90;1.00
17178;DHT22;8704;52.006;4.374;2023-03-04T02:41:36;5.90;1.00
17178;DHT22;8704;52.006;4.374;2023-03-04T02:44:14;5.90;1.00
17178;DHT22;8704;52.006;4.374;2023-03-04T02:46:43;6.50;1.00
17178;DHT22;8704;52.006;4.374;2023-03-04T02:49:11;5.90;1.00
17178;DHT22;8704;52.006;4.374;2023-03-04T02:51:39;5.90;1.00
17178;DHT22;8704;52.006;4.374;2023-03-04T02:54:14;5.90;1.00
17178;DHT22;8704;52.006;4.374;2023-03-04T02:56:47;5.90;1.00
17178;DHT22;8704;52.006;4.374;2023-03-04T02:59:16;5.90;1.00
17178;DHT22;8704;52.006;4.374;2023-03-04T03:01:44;7.00;1.00
17178;DHT22;8704;52.006;4.374;2023-03-04T03:04:13;5.90;1.00
17178;DHT22;8704;52.006;4.374;2023-03-04T03:06:41;5.80;1.00
17178;DHT22;8704;52.006;4.374;2023-03-04T03:09:09;5.90;1.00
17178;DHT22;8704;52.006;4.374;2023-03-04T03:11:37;5.80;1.00
17178;DHT22;8704;52.006;4.374;2023-03-04T03:14:06;5.80;1.00
17178;DHT22;8704;52.006;4.374;2023-03-04T03:16:34;5.80;1.00
17178;DHT22;8704;52.006;4.374;2023-03-04T03:19:02;5.80;1.00
17178;DHT22;8704;52.006;4.374;2023-03-04T03:21:30;5.80;1.00
17178;DHT22;8704;52.006;4.374;2023-03-04T03:23:58;7.00;1.00
17178;DHT22;8704;52.006;4.374;2023-03-04T03:26:26;5.80;1.00
17178;DHT22;8704;52.006;4.374;2023-03-04T03:28:54;5.80;1.00
17178;DHT22;8704;52.006;4.374;2023-03-04T03:31:24;5.80;1.00
17178;DHT22;8704;52.006;4.374;2023-03-04T03:33:52;5.70;1.00
17178;DHT22;8704;52.006;4.374;2023-03-04T03:36:20;5.80;1.00
17178;DHT22;8704;52.006;4.374;2023-03-04T03:38:48;5.90;1.00
17178;DHT22;8704;52.006;4.374;2023-03-04T03:41:16;5.80;1.00
17178;DHT22;8704;52.006;4.374;2023-03-04T03:43:43;5.70;1.00
17178;DHT22;8704;52.006;4.374;2023-03-04T03:46:11;5.70;1.00
17178;DHT22;8704;52.006;4.374;2023-03-04T03:48:41;5.70;1.00
17178;DHT22;8704;52.006;4.374;2023-03-04T03:51:09;5.70;1.00
17178;DHT22;8704;52.006;4.374;2023-03-04T03:53:37;5.80;1.00
17178;DHT22;8704;52.006;4.374;2023-03-04T03:56:05;6.30;1.00
17178;DHT22;8704;52.006;4.374;2023-03-04T03:58:33;5.80;1.00
17178;DHT22;8704;52.006;4.374;2023-03-04T04:01:02;5.80;1.00
17178;DHT22;8704;52.006;4.374;2023-03-04T04:03:29;5.80;1.00
17178;DHT22;8704;52.006;4.374;2023-03-04T04:05:59;6.90;1.00
17178;DHT22;8704;52.006;4.374;2023-03-04T04:08:27;5.80;1.00
17178;DHT22;8704;52.006;4.374;2023-03-04T04:10:55;5.80;1.00
17178;DHT22;8704;52.006;4.374;2023-03-04T04:13:23;5.70;1.00
17178;DHT22;8704;52.006;4.374;2023-03-04T04:15:51;5.80;1.00
17178;DHT22;8704;52.006;4.374;2023-03-04T04:18:19;5.80;1.00
17178;DHT22;8704;52.006;4.374;2023-03-04T04:20:47;5.80;1.00
17178;DHT22;8704;52.006;4.374;2023-03-04T04:23:16;5.80;1.00
17178;DHT22;8704;52.006;4.374;2023-03-04T04:25:44;5.80;1.00
17178;DHT22;8704;52.006;4.374;2023-03-04T04:28:12;5.80;1.00
17178;DHT22;8704;52.006;4.374;2023-03-04T04:30:40;5.70;1.00
17178;DHT22;8704;52.006;4.374;2023-03-04T04:33:08;5.70;1.00
17178;DHT22;8704;52.006;4.374;2023-03-04T04:35:36;5.70;1.00
17178;DHT22;8704;52.006;4.374;2023-03-04T04:38:05;5.70;1.00
17178;DHT22;8704;52.006;4.374;2023-03-04T04:40:35;5.70;1.00
17178;DHT22;8704;52.006;4.374;2023-03-04T04:43:03;5.70;1.00
17178;DHT22;8704;52.006;4.374;2023-03-04T04:45:33;5.70;1.00
17178;DHT22;8704;52.006;4.374;2023-03-04T04:48:01;5.70;1.00
17178;DHT22;8704;52.006;4.374;2023-03-04T04:50:29;5.80;1.00
17178;DHT22;8704;52.006;4.374;2023-03-04T04:52:58;5.70;1.00
17178;DHT22;8704;52.006;4.374;2023-03-04T04:55:26;5.70;1.00
17178;DHT22;8704;52.006;4.374;2023-03-04T04:57:56;5.70;1.00
17178;DHT22;8704;52.006;4.374;2023-03-04T05:00:24;5.70;1.00
17178;DHT22;8704;52.006;4.374;2023-03-04T05:02:52;5.70;1.00
17178;DHT22;8704;52.006;4.374;2023-03-04T05:05:20;6.40;1.00
17178;DHT22;8704;52.006;4.374;2023-03-04T05:07:48;5.70;1.00
17178;DHT22;8704;52.006;4.374;2023-03-04T05:10:16;5.70;1.00
17178;DHT22;8704;52.006;4.374;2023-03-04T05:12:44;5.70;1.00
17178;DHT22;8704;52.006;4.374;2023-03-04T05:15:14;5.80;1.00
17178;DHT22;8704;52.006;4.374;2023-03-04T05:17:41;5.70;1.00
17178;DHT22;8704;52.006;4.374;2023-03-04T05:20:10;6.50;1.00
17178;DHT22;8704;52.006;4.374;2023-03-04T05:22:38;5.70;1.00
17178;DHT22;8704;52.006;4.374;2023-03-04T05:25:07;5.70;1.00
17178;DHT22;8704;52.006;4.374;2023-03-04T05:27:35;5.70;1.00
17178;DHT22;8704;52.006;4.374;2023-03-04T05:30:04;5.70;1.00
17178;DHT22;8704;52.006;4.374;2023-03-04T05:32:34;5.70;1.00
17178;DHT22;8704;52.006;4.374;2023-03-04T05:35:02;6.90;1.00
17178;DHT22;8704;52.006;4.374;2023-03-04T05:37:30;5.70;1.00
17178;DHT22;8704;52.006;4.374;2023-03-04T05:39:58;6.30;1.00
17178;DHT22;8704;52.006;4.374;2023-03-04T05:42:26;5.80;1.00
17178;DHT22;8704;52.006;4.374;2023-03-04T05:44:54;5.70;1.00
17178;DHT22;8704;52.006;4.374;2023-03-04T05:47:22;6.50;1.00
17178;DHT22;8704;52.006;4.374;2023-03-04T05:49:51;6.00;1.00
17178;DHT22;8704;52.006;4.374;2023-03-04T05:52:20;5.80;1.00
17178;DHT22;8704;52.006;4.374;2023-03-04T05:54:48;5.70;1.00
17178;DHT22;8704;52.006;4.374;2023-03-04T05:57:16;5.70;1.00
17178;DHT22;8704;52.006;4.374;2023-03-04T05:59:44;6.80;1.00
17178;DHT22;8704;52.006;4.374;2023-03-04T06:02:12;5.70;1.00
17178;DHT22;8704;52.006;4.374;2023-03-04T06:04:39;5.70;1.00
17178;DHT22;8704;52.006;4.374;2023-03-04T06:07:09;5.80;1.00
17178;DHT22;8704;52.006;4.374;2023-03-04T06:09:37;5.80;1.00
17178;DHT22;8704;52.006;4.374;2023-03-04T06:12:05;5.80;1.00
17178;DHT22;8704;52.006;4.374;2023-03-04T06:14:33;5.80;1.00
17178;DHT22;8704;52.006;4.374;2023-03-04T06:17:01;5.70;1.00
17178;DHT22;8704;52.006;4.374;2023-03-04T06:19:29;5.80;1.00
17178;DHT22;8704;52.006;4.374;2023-03-04T06:21:58;6.80;1.00
17178;DHT22;8704;52.006;4.374;2023-03-04T06:24:27;5.70;2.50
17178;DHT22;8704;52.006;4.374;2023-03-04T06:26:55;5.70;34.40
17178;DHT22;8704;52.006;4.374;2023-03-04T06:29:23;5.70;66.20
17178;DHT22;8704;52.006;4.374;2023-03-04T06:31:51;5.70;95.50
17178;DHT22;8704;52.006;4.374;2023-03-04T06:34:20;5.80;99.90
17178;DHT22;8704;52.006;4.374;2023-03-04T06:36:48;5.70;99.90
17178;DHT22;8704;52.006;4.374;2023-03-04T06:39:16;6.40;99.90
17178;DHT22;8704;52.006;4.374;2023-03-04T06:41:45;6.30;99.90
17178;DHT22;8704;52.006;4.374;2023-03-04T06:44:13;5.90;99.90
17178;DHT22;8704;52.006;4.374;2023-03-04T06:46:41;5.70;99.90
17178;DHT22;8704;52.006;4.374;2023-03-04T06:49:09;5.70;99.90
17178;DHT22;8704;52.006;4.374;2023-03-04T06:51:37;5.70;99.90
17178;DHT22;8704;52.006;4.374;2023-03-04T06:54:05;6.50;99.90
17178;DHT22;8704;52.006;4.374;2023-03-04T06:56:33;5.70;99.90
17178;DHT22;8704;52.006;4.374;2023-03-04T06:59:03;5.70;92.20
17178;DHT22;8704;52.006;4.374;2023-03-04T07:01:31;5.70;58.60
17178;DHT22;8704;52.006;4.374;2023-03-04T07:04:00;5.70;48.40
17178;DHT22;8704;52.006;4.374;2023-03-04T07:06:28;5.70;35.30
17178;DHT22;8704;52.006;4.374;2023-03-04T07:08:57;5.70;43.40
17178;DHT22;8704;52.006;4.374;2023-03-04T07:11:25;5.70;37.30
17178;DHT22;8704;52.006;4.374;2023-03-04T07:13:53;5.70;30.10
17178;DHT22;8704;52.006;4.374;2023-03-04T07:16:23;5.80;19.60
17178;DHT22;8704;52.006;4.374;2023-03-04T07:18:51;5.80;8.90
17178;DHT22;8704;52.006;4.374;2023-03-04T07:21:19;6.00;1.00
17178;DHT22;8704;52.006;4.374;2023-03-04T07:23:47;5.80;1.00
17178;DHT22;8704;52.006;4.374;2023-03-04T07:26:15;6.80;3.30
17178;DHT22;8704;52.006;4.374;2023-03-04T07:28:43;6.90;1.00
17178;DHT22;8704;52.006;4.374;2023-03-04T07:31:14;5.90;1.00
17178;DHT22;8704;52.006;4.374;2023-03-04T07:33:46;5.90;1.00
17178;DHT22;8704;52.006;4.374;2023-03-04T07:36:14;5.90;1.00
17178;DHT22;8704;52.006;4.374;2023-03-04T07:38:43;6.00;1.00
17178;DHT22;8704;52.006;4.374;2023-03-04T07:41:11;6.30;1.00
17178;DHT22;8704;52.006;4.374;2023-03-04T07:43:39;6.00;1.00
17178;DHT22;8704;52.006;4.374;2023-03-04T07:46:08;6.20;1.00
17178;DHT22;8704;52.006;4.374;2023-03-04T07:48:36;6.20;1.00
17178;DHT22;8704;52.006;4.374;2023-03-04T07:51:08;6.30;1.00
17178;DHT22;8704;52.006;4.374;2023-03-04T07:53:37;6.30;1.00
17178;DHT22;8704;52.006;4.374;2023-03-04T07:56:06;6.30;5.40
17178;DHT22;8704;52.006;4.374;2023-03-04T07:58:35;6.30;54.20
17178;DHT22;8704;52.006;4.374;2023-03-04T08:01:08;6.40;62.90
17178;DHT22;8704;52.006;4.374;2023-03-04T08:03:37;6.40;48.90
17178;DHT22;8704;52.006;4.374;2023-03-04T08:06:08;6.40;70.40
17178;DHT22;8704;52.006;4.374;2023-03-04T08:08:36;6.50;54.10
17178;DHT22;8704;52.006;4.374;2023-03-04T08:11:05;6.60;41.80
17178;DHT22;8704;52.006;4.374;2023-03-04T08:13:34;6.60;71.00
17178;DHT22;8704;52.006;4.374;2023-03-04T08:16:02;6.60;81.70
17178;DHT22;8704;52.006;4.374;2023-03-04T08:18:31;6.60;67.60
17178;DHT22;8704;52.006;4.374;2023-03-04T08:20:59;6.60;96.20
17178;DHT22;8704;52.006;4.374;2023-03-04T08:23:28;6.70;99.90
17178;DHT22;8704;52.006;4.374;2023-03-04T08:25:56;6.70;99.90
17178;DHT22;8704;52.006;4.374;2023-03-04T08:28:24;6.70;89.70
17178;DHT22;8704;52.006;4.374;2023-03-04T08:30:53;7.80;88.20
17178;DHT22;8704;52.006;4.374;2023-03-04T08:33:22;6.70;31.80
17178;DHT22;8704;52.006;4.374;2023-03-04T08:35:50;6.80;42.90
17178;DHT22;8704;52.006;4.374;2023-03-04T08:38:18;6.80;45.10
17178;DHT22;8704;52.006;4.374;2023-03-04T08:40:52;6.90;37.80
17178;DHT22;8704;52.006;4.374;2023-03-04T08:43:21;6.90;99.90
17178;DHT22;8704;52.006;4.374;2023-03-04T08:45:50;6.90;99.90
17178;DHT22;8704;52.006;4.374;2023-03-04T08:48:19;6.80;99.90
17178;DHT22;8704;52.006;4.374;2023-03-04T08:50:48;6.90;99.90
17178;DHT22;8704;52.006;4.374;2023-03-04T08:53:17;7.10;99.90
17178;DHT22;8704;52.006;4.374;2023-03-04T08:55:46;6.90;99.90
17178;DHT22;8704;52.006;4.374;2023-03-04T08:58:15;6.80;99.90
17178;DHT22;8704;52.006;4.374;2023-03-04T09:00:46;6.90;99.90
17178;DHT22;8704;52.006;4.374;2023-03-04T09:03:15;7.00;99.90
17178;DHT22;8704;52.006;4.374;2023-03-04T09:05:45;7.10;99.90
17178;DHT22;8704;52.006;4.374;2023-03-04T09:08:13;7.50;99.90
17178;DHT22;8704;52.006;4.374;2023-03-04T09:10:42;7.90;99.90
17178;DHT22;8704;52.006;4.374;2023-03-04T09:13:10;7.40;99.90
17178;DHT22;8704;52.006;4.374;2023-03-04T09:15:44;7.50;99.90
17178;DHT22;8704;52.006;4.374;2023-03-04T09:18:13;7.40;99.90
17178;DHT22;8704;52.006;4.374;2023-03-04T09:20:42;7.40;99.90
17178;DHT22;8704;52.006;4.374;2023-03-04T09:23:11;7.40;99.90
17178;DHT22;8704;52.006;4.374;2023-03-04T09:25:40;7.30;99.90
17178;DHT22;8704;52.006;4.374;2023-03-04T09:28:09;8.30;1.00
17178;DHT22;8704;52.006;4.374;2023-03-04T09:30:38;7.40;1.00
17178;DHT22;8704;52.006;4.374;2023-03-04T09:33:08;7.20;1.00
17178;DHT22;8704;52.006;4.374;2023-03-04T09:35:36;7.70;1.00
17178;DHT22;8704;52.006;4.374;2023-03-04T09:38:04;7.30;1.00
17178;DHT22;8704;52.006;4.374;2023-03-04T09:40:38;7.40;1.00
17178;DHT22;8704;52.006;4.374;2023-03-04T09:43:12;7.50;1.00
17178;DHT22;8704;52.006;4.374;2023-03-04T09:45:47;7.60;1.00
17178;DHT22;8704;52.006;4.374;2023-03-04T09:48:20;8.80;1.00
17178;DHT22;8704;52.006;4.374;2023-03-04T09:51:01;7.80;1.00
17178;DHT22;8704;52.006;4.374;2023-03-04T09:53:39;7.90;1.00
17178;DHT22;8704;52.006;4.374;2023-03-04T09:56:09;8.70;1.00
17178;DHT22;8704;52.006;4.374;2023-03-04T09:58:47;7.90;99.90
17178;DHT22;8704;52.006;4.374;2023-03-04T10:01:21;7.90;99.90
17178;DHT22;8704;52.006;4.374;2023-03-04T10:03:57;7.90;99.90
17178;DHT22;8704;52.006;4.374;2023-03-04T10:06:26;7.90;99.90
17178;DHT22;8704;52.006;4.374;2023-03-04T10:08:58;8.00;99.90
17178;DHT22;8704;52.006;4.374;2023-03-04T10:11:32;8.00;99.90
17178;DHT22;8704;52.006;4.374;2023-03-04T10:14:25;8.00;99.90
17178;DHT22;8704;52.006;4.374;2023-03-04T10:16:58;8.10;99.90
17178;DHT22;8704;52.006;4.374;2023-03-04T10:19:33;8.30;99.90
17178;DHT22;8704;52.006;4.374;2023-03-04T10:22:14;8.20;99.90
17178;DHT22;8704;52.006;4.374;2023-03-04T10:24:43;8.60;99.90
17178;DHT22;8704;52.006;4.374;2023-03-04T10:27:16;8.20;99.90
17178;DHT22;8704;52.006;4.374;2023-03-04T10:29:45;8.30;99.90
17178;DHT22;8704;52.006;4.374;2023-03-04T10:32:16;8.10;99.90
17178;DHT22;8704;52.006;4.374;2023-03-04T10:34:46;8.50;1.00
17178;DHT22;8704;52.006;4.374;2023-03-04T10:37:14;8.70;1.00
17178;DHT22;8704;52.006;4.374;2023-03-04T10:39:44;8.30;1.00
17178;DHT22;8704;52.006;4.374;2023-03-04T10:42:25;8.20;1.00
17178;DHT22;8704;52.006;4.374;2023-03-04T10:44:55;8.10;1.00
17178;DHT22;8704;52.006;4.374;2023-03-04T10:47:24;8.20;1.00
17178;DHT22;8704;52.006;4.374;2023-03-04T10:49:55;8.20;1.00
17178;DHT22;8704;52.006;4.374;2023-03-04T10:52:28;8.40;1.00
17178;DHT22;8704;52.006;4.374;2023-03-04T10:54:58;8.50;1.00
17178;DHT22;8704;52.006;4.374;2023-03-04T10:57:33;8.60;1.00
17178;DHT22;8704;52.006;4.374;2023-03-04T11:00:08;8.40;1.00
17178;DHT22;8704;52.006;4.374;2023-03-04T11:02:48;8.50;1.00
17178;DHT22;8704;52.006;4.374;2023-03-04T11:05:20;8.50;1.00
17178;DHT22;8704;52.006;4.374;2023-03-04T11:07:49;8.60;99.90
17178;DHT22;8704;52.006;4.374;2023-03-04T11:10:24;8.70;99.90
17178;DHT22;8704;52.006;4.374;2023-03-04T11:12:58;8.80;99.90
17178;DHT22;8704;52.006;4.374;2023-03-04T11:15:27;8.90;99.90
17178;DHT22;8704;52.006;4.374;2023-03-04T11:18:00;9.00;99.90
17178;DHT22;8704;52.006;4.374;2023-03-04T11:20:31;8.90;99.90
17178;DHT22;8704;52.006;4.374;2023-03-04T11:23:03;8.80;99.90
17178;DHT22;8704;52.006;4.374;2023-03-04T11:25:34;8.90;99.90
17178;DHT22;8704;52.006;4.374;2023-03-04T11:28:08;8.80;99.90
17178;DHT22;8704;52.006;4.374;2023-03-04T11:30:43;8.90;99.90
17178;DHT22;8704;52.006;4.374;2023-03-04T11:33:16;9.10;99.90
17178;DHT22;8704;52.006;4.374;2023-03-04T11:35:53;9.20;99.90
17178;DHT22;8704;52.006;4.374;2023-03-04T11:38:28;9.00;99.90
17178;DHT22;8704;52.006;4.374;2023-03-04T11:40:59;9.00;99.90
17178;DHT22;8704;52.006;4.374;2023-03-04T11:43:33;9.00;99.90
17178;DHT22;8704;52.006;4.374;2023-03-04T11:49:20;9.00;99.90
17178;DHT22;8704;52.006;4.374;2023-03-04T11:52:00;9.30;99.90
17178;DHT22;8704;52.006;4.374;2023-03-04T11:54:36;9.40;99.90
17178;DHT22;8704;52.006;4.374;2023-03-04T11:57:20;9.40;99.90
17178;DHT22;8704;52.006;4.374;2023-03-04T11:59:58;9.50;99.90
17178;DHT22;8704;52.006;4.374;2023-03-04T12:02:36;9.30;99.90
17178;DHT22;8704;52.006;4.374;2023-03-04T12:05:22;9.30;99.90
17178;DHT22;8704;52.006;4.374;2023-03-04T12:11:06;9.30;99.90
17178;DHT22;8704;52.006;4.374;2023-03-04T12:14:01;9.40;99.90
17178;DHT22;8704;52.006;4.374;2023-03-04T12:19:37;9.40;99.90
17178;DHT22;8704;52.006;4.374;2023-03-04T12:22:30;9.20;99.90
17178;DHT22;8704;52.006;4.374;2023-03-04T12:25:30;9.00;99.90
17178;DHT22;8704;52.006;4.374;2023-03-04T12:28:13;9.10;1.00
17178;DHT22;8704;52.006;4.374;2023-03-04T12:30:52;9.20;1.00
17178;DHT22;8704;52.006;4.374;2023-03-04T12:33:32;9.00;1.00
17178;DHT22;8704;52.006;4.374;2023-03-04T12:36:12;8.60;1.00
17178;DHT22;8704;52.006;4.374;2023-03-04T12:38:59;9.00;1.00
17178;DHT22;8704;52.006;4.374;2023-03-04T12:41:43;9.10;1.00
17178;DHT22;8704;52.006;4.374;2023-03-04T12:44:14;9.00;1.00
17178;DHT22;8704;52.006;4.374;2023-03-04T12:46:59;9.50;1.00
17178;DHT22;8704;52.006;4.374;2023-03-04T12:49:40;9.20;1.00
17178;DHT22;8704;52.006;4.374;2023-03-04T12:52:15;9.30;1.00
17178;DHT22;8704;52.006;4.374;2023-03-04T12:54:48;9.10;1.00
17178;DHT22;8704;52.006;4.374;2023-03-04T12:57:19;9.00;99.90
17178;DHT22;8704;52.006;4.374;2023-03-04T12:59:53;9.30;1.00
17178;DHT22;8704;52.006;4.374;2023-03-04T13:02:39;9.50;1.00
17178;DHT22;8704;52.006;4.374;2023-03-04T13:05:26;9.50;1.00
17178;DHT22;8704;52.006;4.374;2023-03-04T13:08:02;9.40;99.90
17178;DHT22;8704;52.006;4.374;2023-03-04T13:10:34;9.60;99.90
17178;DHT22;8704;52.006;4.374;2023-03-04T13:13:04;10.20;99.90
17178;DHT22;8704;52.006;4.374;2023-03-04T13:15:34;9.30;99.90
17178;DHT22;8704;52.006;4.374;2023-03-04T13:20:46;9.80;99.90
17178;DHT22;8704;52.006;4.374;2023-03-04T13:23:31;10.40;99.90
17178;DHT22;8704;52.006;4.374;2023-03-04T13:26:27;10.00;99.90
17178;DHT22;8704;52.006;4.374;2023-03-04T13:29:30;10.00;99.90
17178;DHT22;8704;52.006;4.374;2023-03-04T13:32:00;10.20;99.90
17178;DHT22;8704;52.006;4.374;2023-03-04T13:34:44;10.70;99.90
17178;DHT22;8704;52.006;4.374;2023-03-04T13:37:28;10.60;99.90
17178;DHT22;8704;52.006;4.374;2023-03-04T13:40:34;10.60;99.90
17178;DHT22;8704;52.006;4.374;2023-03-04T13:43:25;10.60;99.90
17178;DHT22;8704;52.006;4.374;2023-03-04T13:45:55;10.10;99.90
17178;DHT22;8704;52.006;4.374;2023-03-04T13:48:27;10.00;99.90
17178;DHT22;8704;52.006;4.374;2023-03-04T13:50:57;9.90;99.90
17178;DHT22;8704;52.006;4.374;2023-03-04T13:53:39;10.30;99.90
17178;DHT22;8704;52.006;4.374;2023-03-04T13:59:11;10.20;99.90
17178;DHT22;8704;52.006;4.374;2023-03-04T14:01:54;10.50;99.90
17178;DHT22;8704;52.006;4.374;2023-03-04T14:04:25;10.70;99.90
17178;DHT22;8704;52.006;4.374;2023-03-04T14:06:55;10.90;99.90
17178;DHT22;8704;52.006;4.374;2023-03-04T14:09:26;10.80;99.90
17178;DHT22;8704;52.006;4.374;2023-03-04T14:11:56;10.90;99.90
17178;DHT22;8704;52.006;4.374;2023-03-04T14:14:28;11.20;99.90
17178;DHT22;8704;52.006;4.374;2023-03-04T14:17:00;11.10;99.90
17178;DHT22;8704;52.006;4.374;2023-03-04T14:19:30;11.20;99.90
17178;DHT22;8704;52.006;4.374;2023-03-04T14:21:59;11.40;99.90
17178;DHT22;8704;52.006;4.374;2023-03-04T14:24:27;11.30;99.90
17178;DHT22;8704;52.006;4.374;2023-03-04T14:27:05;11.40;99.90
17178;DHT22;8704;52.006;4.374;2023-03-04T14:29:37;11.50;99.90
17178;DHT22;8704;52.006;4.374;2023-03-04T14:32:06;11.20;95.90
17178;DHT22;8704;52.006;4.374;2023-03-04T14:34:36;11.10;89.10
17178;DHT22;8704;52.006;4.374;2023-03-04T14:37:19;11.70;99.90
17178;DHT22;8704;52.006;4.374;2023-03-04T14:39:50;10.90;43.90
17178;DHT22;8704;52.006;4.374;2023-03-04T14:42:20;10.90;8.70
17178;DHT22;8704;52.006;4.374;2023-03-04T14:44:50;10.70;21.60
17178;DHT22;8704;52.006;4.374;2023-03-04T14:47:23;10.60;17.80
17178;DHT22;8704;52.006;4.374;2023-03-04T14:49:53;10.40;1.00
17178;DHT22;8704;52.006;4.374;2023-03-04T14:52:43;10.20;1.00
17178;DHT22;8704;52.006;4.374;2023-03-04T14:55:22;9.90;1.00
17178;DHT22;8704;52.006;4.374;2023-03-04T14:57:51;10.00;1.00
17178;DHT22;8704;52.006;4.374;2023-03-04T15:00:28;10.00;1.00
17178;DHT22;8704;52.006;4.374;2023-03-04T15:02:59;10.10;1.00
17178;DHT22;8704;52.006;4.374;2023-03-04T15:05:29;10.50;1.00
17178;DHT22;8704;52.006;4.374;2023-03-04T15:07:59;9.90;1.00
17178;DHT22;8704;52.006;4.374;2023-03-04T15:10:29;9.90;1.00
17178;DHT22;8704;52.006;4.374;2023-03-04T15:12:59;9.80;1.00
17178;DHT22;8704;52.006;4.374;2023-03-04T15:15:37;9.90;1.00
17178;DHT22;8704;52.006;4.374;2023-03-04T15:18:20;10.00;1.00
17178;DHT22;8704;52.006;4.374;2023-03-04T15:20:53;9.90;1.00
17178;DHT22;8704;52.006;4.374;2023-03-04T15:23:21;10.20;1.00
17178;DHT22;8704;52.006;4.374;2023-03-04T15:25:54;9.90;1.00
17178;DHT22;8704;52.006;4.374;2023-03-04T15:28:23;9.70;1.00
17178;DHT22;8704;52.006;4.374;2023-03-04T15:30:52;9.80;1.00
17178;DHT22;8704;52.006;4.374;2023-03-04T15:33:22;9.50;1.00
17178;DHT22;8704;52.006;4.374;2023-03-04T15:35:53;9.60;1.00
17178;DHT22;8704;52.006;4.374;2023-03-04T15:38:23;9.50;1.00
17178;DHT22;8704;52.006;4.374;2023-03-04T15:40:52;9.40;1.00
17178;DHT22;8704;52.006;4.374;2023-03-04T15:43:21;9.20;1.00
17178;DHT22;8704;52.006;4.374;2023-03-04T15:45:50;9.00;1.00
17178;DHT22;8704;52.006;4.374;2023-03-04T15:48:19;9.00;1.00
17178;DHT22;8704;52.006;4.374;2023-03-04T15:50:54;9.00;1.00
17178;DHT22;8704;52.006;4.374;2023-03-04T15:53:26;9.00;1.00
17178;DHT22;8704;52.006;4.374;2023-03-04T15:55:55;9.00;1.00
17178;DHT22;8704;52.006;4.374;2023-03-04T15:58:23;8.90;1.00
17178;DHT22;8704;52.006;4.374;2023-03-04T16:00:52;8.90;1.00
17178;DHT22;8704;52.006;4.374;2023-03-04T16:03:21;9.00;1.00
17178;DHT22;8704;52.006;4.374;2023-03-04T16:05:51;8.90;1.00
17178;DHT22;8704;52.006;4.374;2023-03-04T16:08:20;8.90;1.00
17178;DHT22;8704;52.006;4.374;2023-03-04T16:10:51;9.20;1.00
17178;DHT22;8704;52.006;4.374;2023-03-04T16:13:21;9.00;1.00
17178;DHT22;8704;52.006;4.374;2023-03-04T16:15:50;8.80;1.00
17178;DHT22;8704;52.006;4.374;2023-03-04T16:18:19;8.80;1.00
17178;DHT22;8704;52.006;4.374;2023-03-04T16:20:49;8.90;1.00
17178;DHT22;8704;52.006;4.374;2023-03-04T16:23:20;8.70;1.00
17178;DHT22;8704;52.006;4.374;2023-03-04T16:25:51;8.60;1.00
17178;DHT22;8704;52.006;4.374;2023-03-04T16:28:20;8.60;1.00
17178;DHT22;8704;52.006;4.374;2023-03-04T16:30:49;8.50;1.00
17178;DHT22;8704;52.006;4.374;2023-03-04T16:33:17;8.60;1.00
17178;DHT22;8704;52.006;4.374;2023-03-04T16:35:45;8.80;1.00
17178;DHT22;8704;52.006;4.374;2023-03-04T16:38:20;8.40;1.00
17178;DHT22;8704;52.006;4.374;2023-03-04T16:40:51;8.40;11.00
17178;DHT22;8704;52.006;4.374;2023-03-04T16:43:20;8.30;26.60
17178;DHT22;8704;52.006;4.374;2023-03-04T16:45:48;8.70;91.60
17178;DHT22;8704;52.006;4.374;2023-03-04T16:48:16;8.20;99.90
17178;DHT22;8704;52.006;4.374;2023-03-04T16:50:45;8.10;99.90